sensor_id;sensor_type;location;lat;lon;timestamp;noise_LAeq;noise_LA_min;noise_LA_max;noise_LA01;noise_LA95
69619;Laerm;57653;51.434;5.984;2023-06-14T00:00:07;33.03;26.92;45.85;;
69619;Laerm;57653;51.434;5.984;2023-06-14T00:00:18;30.40;27.94;33.61;;
69619;Laerm;57653;51.434;5.984;2023-06-14T00:00:28;29.89;27.62;33.92;;
69619;Laerm;57653;51.434;5.984;2023-06-14T00:00:38;28.57;27.00;32.61;;
69619;Laerm;57653;51.434;5.984;2023-06-14T00:00:52;29.28;27.24;32.60;;
69619;Laerm;57653;51.434;5.984;2023-06-14T00:01:02;30.55;28.14;33.92;;
69619;Laerm;57653;51.434;5.984;2023-06-14T00:01:16;30.44;28.33;34.33;;
69619;Laerm;57653;51.434;5.984;2023-06-14T00:01:27;30.73;28.48;35.55;;
69619;Laerm;57653;51.434;5.984;2023-06-14T00:01:37;32.38;29.09;35.71;;
69619;Laerm;57653;51.434;5.984;2023-06-14T00:01:48;32.41;28.90;36.09;;
69619;Laerm;57653;51.434;5.984;2023-06-14T00:01:58;30.81;27.94;34.67;;
69619;Laerm;57653;51.434;5.984;2023-06-14T00:02:09;30.31;27.63;33.86;;
69619;Laerm;57653;51.434;5.984;2023-06-14T00:02:19;29.87;28.10;32.30;;
69619;Laerm;57653;51.434;5.984;2023-06-14T00:02:29;29.83;27.76;31.75;;
69619;Laerm;57653;51.434;5.984;2023-06-14T00:02:39;29.38;27.64;31.62;;
69619;Laerm;57653;51.434;5.984;2023-06-14T00:02:50;29.68;27.91;31.08;;
69619;Laerm;57653;51.434;5.984;2023-06-14T00:03:00;30.16;28.17;32.44;;
69619;Laerm;57653;51.434;5.984;2023-06-14T00:03:10;30.18;28.03;32.92;;
69619;Laerm;57653;51.434;5.984;2023-06-14T00:03:21;31.46;28.64;34.26;;
69619;Laerm;57653;51.434;5.984;2023-06-14T00:03:32;46.75;33.11;54.04;;
69619;Laerm;57653;51.434;5.984;2023-06-14T00:03:43;57.13;52.94;59.65;;
69619;Laerm;57653;51.434;5.984;2023-06-14T00:03:53;57.37;55.50;62.32;;
69619;Laerm;57653;51.434;5.984;2023-06-14T00:04:04;54.61;43.67;59.04;;
69619;Laerm;57653;51.434;5.984;2023-06-14T00:04:19;54.09;39.07;62.72;;
69619;Laerm;57653;51.434;5.984;2023-06-14T00:04:30;56.72;41.25;62.48;;
69619;Laerm;57653;51.434;5.984;2023-06-14T00:04:40;36.71;29.72;44.31;;
69619;Laerm;57653;51.434;5.984;2023-06-14T00:04:51;30.23;28.50;32.84;;
69619;Laerm;57653;51.434;5.984;2023-06-14T00:05:02;29.64;27.92;31.52;;
69619;Laerm;57653;51.434;5.984;2023-06-14T00:05:13;29.92;28.08;32.04;;
69619;Laerm;57653;51.434;5.984;2023-06-14T00:05:24;31.28;28.33;36.56;;
69619;Laerm;57653;51.434;5.984;2023-06-14T00:05:34;30.27;28.53;35.41;;
69619;Laerm;57653;51.434;5.984;2023-06-14T00:05:48;29.36;27.91;32.43;;
69619;Laerm;57653;51.434;5.984;2023-06-14T00:05:59;29.35;27.67;32.39;;
69619;Laerm;57653;51.434;5.984;2023-06-14T00:06:09;31.32;28.52;36.39;;
69619;Laerm;57653;51.434;5.984;2023-06-14T00:06:19;30.25;27.80;37.86;;
69619;Laerm;57653;51.434;5.984;2023-06-14T00:06:29;29.49;27.94;31.65;;
69619;Laerm;57653;51.434;5.984;2023-06-14T00:06:40;29.44;27.67;31.91;;
69619;Laerm;57653;51.434;5.984;2023-06-14T00:06:51;30.65;27.59;36.29;;
69619;Laerm;57653;51.434;5.984;2023-06-14T00:07:02;29.88;27.93;34.63;;
69619;Laerm;57653;51.434;5.984;2023-06-14T00:07:13;29.47;27.58;32.70;;
69619;Laerm;57653;51.434;5.984;2023-06-14T00:07:33;29.70;27.27;32.88;;
69619;Laerm;57653;51.434;5.984;2023-06-14T00:07:43;32.20;27.69;43.32;;
69619;Laerm;57653;51.434;5.984;2023-06-14T00:07:53;54.12;39.89;62.04;;
69619;Laerm;57653;51.434;5.984;2023-06-14T00:08:04;60.59;57.36;65.24;;
69619;Laerm;57653;51.434;5.984;2023-06-14T00:08:18;53.39;37.17;61.90;;
69619;Laerm;57653;51.434;5.984;2023-06-14T00:08:29;37.31;32.69;42.03;;
69619;Laerm;57653;51.434;5.984;2023-06-14T00:08:39;34.00;31.66;36.04;;
69619;Laerm;57653;51.434;5.984;2023-06-14T00:08:50;31.80;28.89;35.12;;
69619;Laerm;57653;51.434;5.984;2023-06-14T00:09:01;32.09;28.80;36.86;;
69619;Laerm;57653;51.434;5.984;2023-06-14T00:09:11;30.13;27.76;33.90;;
69619;Laerm;57653;51.434;5.984;2023-06-14T00:09:22;30.32;28.49;32.13;;
69619;Laerm;57653;51.434;5.984;2023-06-14T00:09:33;30.56;28.65;34.76;;
69619;Laerm;57653;51.434;5.984;2023-06-14T00:09:43;30.70;28.21;35.23;;
69619;Laerm;57653;51.434;5.984;2023-06-14T00:09:53;29.59;27.68;32.03;;
69619;Laerm;57653;51.434;5.984;2023-06-14T00:10:04;29.56;28.07;31.06;;
69619;Laerm;57653;51.434;5.984;2023-06-14T00:10:15;29.27;27.63;31.26;;
69619;Laerm;57653;51.434;5.984;2023-06-14T00:10:25;29.01;27.32;31.39;;
69619;Laerm;57653;51.434;5.984;2023-06-14T00:10:36;29.39;27.05;32.92;;
69619;Laerm;57653;51.434;5.984;2023-06-14T00:10:47;29.53;27.17;32.67;;
69619;Laerm;57653;51.434;5.984;2023-06-14T00:10:57;30.90;27.20;36.22;;
69619;Laerm;57653;51.434;5.984;2023-06-14T00:11:07;31.32;27.82;36.05;;
69619;Laerm;57653;51.434;5.984;2023-06-14T00:11:18;30.75;28.24;35.76;;
69619;Laerm;57653;51.434;5.984;2023-06-14T00:11:28;29.47;27.36;33.73;;
69619;Laerm;57653;51.434;5.984;2023-06-14T00:11:42;29.28;27.17;32.95;;
69619;Laerm;57653;51.434;5.984;2023-06-14T00:11:52;29.61;27.42;32.74;;
69619;Laerm;57653;51.434;5.984;2023-06-14T00:12:03;31.40;27.39;37.21;;
69619;Laerm;57653;51.434;5.984;2023-06-14T00:12:13;29.79;27.66;34.13;;
69619;Laerm;57653;51.434;5.984;2023-06-14T00:12:23;28.93;27.64;30.67;;
69619;Laerm;57653;51.434;5.984;2023-06-14T00:12:34;30.06;27.56;35.45;;
69619;Laerm;57653;51.434;5.984;2023-06-14T00:12:45;31.80;27.76;38.08;;
69619;Laerm;57653;51.434;5.984;2023-06-14T00:12:55;31.19;27.14;37.63;;
69619;Laerm;57653;51.434;5.984;2023-06-14T00:13:05;29.18;27.16;34.66;;
69619;Laerm;57653;51.434;5.984;2023-06-14T00:13:17;28.98;26.79;34.93;;
69619;Laerm;57653;51.434;5.984;2023-06-14T00:13:27;29.83;27.26;37.43;;
69619;Laerm;57653;51.434;5.984;2023-06-14T00:13:38;28.32;27.09;29.95;;
69619;Laerm;57653;51.434;5.984;2023-06-14T00:13:48;28.39;27.10;30.27;;
69619;Laerm;57653;51.434;5.984;2023-06-14T00:13:58;28.79;27.08;34.43;;
69619;Laerm;57653;51.434;5.984;2023-06-14T00:14:09;29.85;27.51;35.00;;
69619;Laerm;57653;51.434;5.984;2023-06-14T00:14:20;30.65;27.56;36.72;;
69619;Laerm;57653;51.434;5.984;2023-06-14T00:14:31;29.74;26.98;35.47;;
69619;Laerm;57653;51.434;5.984;2023-06-14T00:14:41;27.77;26.72;28.96;;
69619;Laerm;57653;51.434;5.984;2023-06-14T00:14:51;28.00;26.50;29.28;;
69619;Laerm;57653;51.434;5.984;2023-06-14T00:15:02;28.33;26.61;30.97;;
69619;Laerm;57653;51.434;5.984;2023-06-14T00:15:12;29.28;27.28;32.25;;
69619;Laerm;57653;51.434;5.984;2023-06-14T00:15:22;29.19;27.13;32.08;;
69619;Laerm;57653;51.434;5.984;2023-06-14T00:15:33;28.79;26.85;35.35;;
69619;Laerm;57653;51.434;5.984;2023-06-14T00:15:44;28.86;26.31;31.51;;
69619;Laerm;57653;51.434;5.984;2023-06-14T00:15:56;29.41;27.57;34.71;;
69619;Laerm;57653;51.434;5.984;2023-06-14T00:16:06;30.30;27.75;35.43;;
69619;Laerm;57653;51.434;5.984;2023-06-14T00:16:16;31.62;27.61;35.97;;
69619;Laerm;57653;51.434;5.984;2023-06-14T00:16:27;30.60;27.30;34.82;;
69619;Laerm;57653;51.434;5.984;2023-06-14T00:16:37;30.62;27.64;35.65;;
69619;Laerm;57653;51.434;5.984;2023-06-14T00:16:48;30.57;27.86;35.79;;
69619;Laerm;57653;51.434;5.984;2023-06-14T00:16:59;30.01;27.78;33.38;;
69619;Laerm;57653;51.434;5.984;2023-06-14T00:17:09;28.84;27.36;31.75;;
69619;Laerm;57653;51.434;5.984;2023-06-14T00:17:19;31.39;27.33;37.02;;
69619;Laerm;57653;51.434;5.984;2023-06-14T00:17:30;31.23;27.45;35.23;;
69619;Laerm;57653;51.434;5.984;2023-06-14T00:17:41;31.35;28.44;36.19;;
69619;Laerm;57653;51.434;5.984;2023-06-14T00:17:51;30.00;27.20;34.57;;
69619;Laerm;57653;51.434;5.984;2023-06-14T00:18:02;28.73;26.95;33.05;;
69619;Laerm;57653;51.434;5.984;2023-06-14T00:18:12;29.77;27.20;34.70;;
69619;Laerm;57653;51.434;5.984;2023-06-14T00:18:23;30.98;27.51;37.22;;
69619;Laerm;57653;51.434;5.984;2023-06-14T00:18:39;30.51;27.29;41.71;;
69619;Laerm;57653;51.434;5.984;2023-06-14T00:18:49;29.62;27.24;33.18;;
69619;Laerm;57653;51.434;5.984;2023-06-14T00:19:01;29.59;27.74;31.95;;
69619;Laerm;57653;51.434;5.984;2023-06-14T00:19:13;30.92;28.59;33.56;;
69619;Laerm;57653;51.434;5.984;2023-06-14T00:19:24;30.53;27.47;34.44;;
69619;Laerm;57653;51.434;5.984;2023-06-14T00:19:35;31.01;27.50;35.02;;
69619;Laerm;57653;51.434;5.984;2023-06-14T00:19:46;30.62;27.75;34.63;;
69619;Laerm;57653;51.434;5.984;2023-06-14T00:19:59;29.25;26.77;32.19;;
69619;Laerm;57653;51.434;5.984;2023-06-14T00:20:10;29.35;26.71;34.24;;
69619;Laerm;57653;51.434;5.984;2023-06-14T00:20:20;30.97;28.28;34.69;;
69619;Laerm;57653;51.434;5.984;2023-06-14T00:20:32;31.95;28.58;35.57;;
69619;Laerm;57653;51.434;5.984;2023-06-14T00:20:42;32.14;28.62;36.01;;
69619;Laerm;57653;51.434;5.984;2023-06-14T00:20:53;31.50;27.77;35.34;;
69619;Laerm;57653;51.434;5.984;2023-06-14T00:21:04;31.06;27.45;35.07;;
69619;Laerm;57653;51.434;5.984;2023-06-14T00:21:14;31.76;27.23;35.81;;
69619;Laerm;57653;51.434;5.984;2023-06-14T00:21:24;31.41;28.59;34.95;;
69619;Laerm;57653;51.434;5.984;2023-06-14T00:21:34;30.24;27.55;33.45;;
69619;Laerm;57653;51.434;5.984;2023-06-14T00:21:45;30.97;27.15;35.30;;
69619;Laerm;57653;51.434;5.984;2023-06-14T00:21:56;30.65;27.84;35.76;;
69619;Laerm;57653;51.434;5.984;2023-06-14T00:22:06;30.20;26.82;35.48;;
69619;Laerm;57653;51.434;5.984;2023-06-14T00:22:17;29.17;26.52;33.34;;
69619;Laerm;57653;51.434;5.984;2023-06-14T00:22:27;31.07;27.78;35.46;;
69619;Laerm;57653;51.434;5.984;2023-06-14T00:22:41;31.94;27.66;35.55;;
69619;Laerm;57653;51.434;5.984;2023-06-14T00:22:51;31.54;27.10;35.09;;
69619;Laerm;57653;51.434;5.984;2023-06-14T00:23:02;32.47;27.50;37.03;;
69619;Laerm;57653;51.434;5.984;2023-06-14T00:23:12;32.87;29.02;35.97;;
69619;Laerm;57653;51.434;5.984;2023-06-14T00:23:22;30.18;27.67;33.86;;
69619;Laerm;57653;51.434;5.984;2023-06-14T00:23:32;32.22;28.61;37.52;;
69619;Laerm;57653;51.434;5.984;2023-06-14T00:23:43;30.96;27.61;35.43;;
69619;Laerm;57653;51.434;5.984;2023-06-14T00:23:53;31.58;28.15;35.25;;
69619;Laerm;57653;51.434;5.984;2023-06-14T00:24:04;32.14;28.19;36.93;;
69619;Laerm;57653;51.434;5.984;2023-06-14T00:24:14;31.48;28.12;36.26;;
69619;Laerm;57653;51.434;5.984;2023-06-14T00:24:24;30.92;27.51;34.32;;
69619;Laerm;57653;51.434;5.984;2023-06-14T00:24:35;29.72;26.96;34.61;;
69619;Laerm;57653;51.434;5.984;2023-06-14T00:24:45;28.78;26.72;35.15;;
69619;Laerm;57653;51.434;5.984;2023-06-14T00:24:55;31.18;27.92;35.45;;
69619;Laerm;57653;51.434;5.984;2023-06-14T00:25:06;31.13;28.23;34.76;;
69619;Laerm;57653;51.434;5.984;2023-06-14T00:25:16;31.17;28.14;34.80;;
69619;Laerm;57653;51.434;5.984;2023-06-14T00:25:26;31.80;29.17;34.66;;
69619;Laerm;57653;51.434;5.984;2023-06-14T00:25:36;31.10;28.04;34.84;;
69619;Laerm;57653;51.434;5.984;2023-06-14T00:25:47;32.36;29.26;37.40;;
69619;Laerm;57653;51.434;5.984;2023-06-14T00:25:57;44.31;32.37;52.82;;
69619;Laerm;57653;51.434;5.984;2023-06-14T00:26:07;58.10;51.53;61.67;;
69619;Laerm;57653;51.434;5.984;2023-06-14T00:26:18;61.35;59.46;65.18;;
69619;Laerm;57653;51.434;5.984;2023-06-14T00:26:28;60.54;55.34;63.55;;
69619;Laerm;57653;51.434;5.984;2023-06-14T00:26:38;50.91;38.86;58.95;;
69619;Laerm;57653;51.434;5.984;2023-06-14T00:26:48;37.50;33.18;41.14;;
69619;Laerm;57653;51.434;5.984;2023-06-14T00:26:59;34.02;31.79;35.77;;
69619;Laerm;57653;51.434;5.984;2023-06-14T00:27:09;32.99;29.45;35.78;;
69619;Laerm;57653;51.434;5.984;2023-06-14T00:27:20;31.43;29.18;34.04;;
69619;Laerm;57653;51.434;5.984;2023-06-14T00:27:30;31.32;29.24;35.40;;
69619;Laerm;57653;51.434;5.984;2023-06-14T00:27:40;30.94;28.87;35.14;;
69619;Laerm;57653;51.434;5.984;2023-06-14T00:27:51;31.82;30.14;35.22;;
69619;Laerm;57653;51.434;5.984;2023-06-14T00:28:01;31.02;28.91;34.28;;
69619;Laerm;57653;51.434;5.984;2023-06-14T00:28:11;31.05;28.87;34.46;;
69619;Laerm;57653;51.434;5.984;2023-06-14T00:28:22;32.72;29.37;37.18;;
69619;Laerm;57653;51.434;5.984;2023-06-14T00:28:32;32.88;31.02;36.29;;
69619;Laerm;57653;51.434;5.984;2023-06-14T00:28:42;32.50;30.17;35.10;;
69619;Laerm;57653;51.434;5.984;2023-06-14T00:28:53;31.71;29.73;33.85;;
69619;Laerm;57653;51.434;5.984;2023-06-14T00:29:04;31.46;29.04;34.23;;
69619;Laerm;57653;51.434;5.984;2023-06-14T00:29:14;31.54;29.04;34.47;;
69619;Laerm;57653;51.434;5.984;2023-06-14T00:29:24;32.57;28.65;37.87;;
69619;Laerm;57653;51.434;5.984;2023-06-14T00:29:35;30.91;27.83;35.59;;
69619;Laerm;57653;51.434;5.984;2023-06-14T00:29:45;31.01;27.96;35.91;;
69619;Laerm;57653;51.434;5.984;2023-06-14T00:29:55;31.08;28.46;36.21;;
69619;Laerm;57653;51.434;5.984;2023-06-14T00:30:08;32.02;30.07;35.15;;
69619;Laerm;57653;51.434;5.984;2023-06-14T00:30:18;31.61;29.17;35.03;;
69619;Laerm;57653;51.434;5.984;2023-06-14T00:30:29;31.36;28.51;35.76;;
69619;Laerm;57653;51.434;5.984;2023-06-14T00:30:40;30.87;27.44;34.75;;
69619;Laerm;57653;51.434;5.984;2023-06-14T00:30:51;30.63;27.76;33.90;;
69619;Laerm;57653;51.434;5.984;2023-06-14T00:31:01;32.21;29.70;36.29;;
69619;Laerm;57653;51.434;5.984;2023-06-14T00:31:11;32.24;29.06;40.59;;
69619;Laerm;57653;51.434;5.984;2023-06-14T00:31:22;32.00;28.86;34.77;;
69619;Laerm;57653;51.434;5.984;2023-06-14T00:31:32;31.14;27.82;35.19;;
69619;Laerm;57653;51.434;5.984;2023-06-14T00:31:42;30.02;27.19;33.37;;
69619;Laerm;57653;51.434;5.984;2023-06-14T00:31:53;29.93;27.25;33.22;;
69619;Laerm;57653;51.434;5.984;2023-06-14T00:32:03;31.30;27.87;35.19;;
69619;Laerm;57653;51.434;5.984;2023-06-14T00:32:13;32.30;28.74;35.74;;
69619;Laerm;57653;51.434;5.984;2023-06-14T00:32:24;31.55;27.77;35.52;;
69619;Laerm;57653;51.434;5.984;2023-06-14T00:32:35;30.69;27.46;34.70;;
69619;Laerm;57653;51.434;5.984;2023-06-14T00:32:46;30.68;27.19;34.04;;
69619;Laerm;57653;51.434;5.984;2023-06-14T00:32:56;31.52;28.42;34.81;;
69619;Laerm;57653;51.434;5.984;2023-06-14T00:33:07;31.49;27.90;35.19;;
69619;Laerm;57653;51.434;5.984;2023-06-14T00:33:17;31.57;27.74;36.33;;
69619;Laerm;57653;51.434;5.984;2023-06-14T00:33:27;31.29;28.62;34.57;;
69619;Laerm;57653;51.434;5.984;2023-06-14T00:33:38;31.32;29.37;33.50;;
69619;Laerm;57653;51.434;5.984;2023-06-14T00:33:48;31.10;28.43;34.57;;
69619;Laerm;57653;51.434;5.984;2023-06-14T00:33:58;30.87;28.36;34.52;;
69619;Laerm;57653;51.434;5.984;2023-06-14T00:34:08;30.75;27.96;33.75;;
69619;Laerm;57653;51.434;5.984;2023-06-14T00:34:19;31.33;27.60;35.63;;
69619;Laerm;57653;51.434;5.984;2023-06-14T00:34:29;31.09;28.30;35.15;;
69619;Laerm;57653;51.434;5.984;2023-06-14T00:34:40;30.66;28.30;33.58;;
69619;Laerm;57653;51.434;5.984;2023-06-14T00:34:50;30.33;28.14;33.25;;
69619;Laerm;57653;51.434;5.984;2023-06-14T00:35:00;30.35;28.42;32.56;;
69619;Laerm;57653;51.434;5.984;2023-06-14T00:35:11;30.19;28.17;33.08;;
69619;Laerm;57653;51.434;5.984;2023-06-14T00:35:21;31.28;28.39;36.46;;
69619;Laerm;57653;51.434;5.984;2023-06-14T00:35:31;31.21;28.35;36.48;;
69619;Laerm;57653;51.434;5.984;2023-06-14T00:35:42;30.61;27.92;34.34;;
69619;Laerm;57653;51.434;5.984;2023-06-14T00:35:52;30.58;28.03;34.99;;
69619;Laerm;57653;51.434;5.984;2023-06-14T00:36:05;31.60;28.34;36.57;;
69619;Laerm;57653;51.434;5.984;2023-06-14T00:36:15;31.76;29.22;35.08;;
69619;Laerm;57653;51.434;5.984;2023-06-14T00:36:26;32.35;29.29;38.23;;
69619;Laerm;57653;51.434;5.984;2023-06-14T00:36:36;30.63;27.92;32.84;;
69619;Laerm;57653;51.434;5.984;2023-06-14T00:36:46;31.00;28.27;33.77;;
69619;Laerm;57653;51.434;5.984;2023-06-14T00:36:56;31.28;28.73;33.33;;
69619;Laerm;57653;51.434;5.984;2023-06-14T00:37:07;31.00;27.79;34.24;;
69619;Laerm;57653;51.434;5.984;2023-06-14T00:37:17;33.02;29.89;36.43;;
69619;Laerm;57653;51.434;5.984;2023-06-14T00:37:27;33.20;30.10;37.16;;
69619;Laerm;57653;51.434;5.984;2023-06-14T00:37:38;32.35;30.20;34.58;;
69619;Laerm;57653;51.434;5.984;2023-06-14T00:37:48;32.01;29.27;34.89;;
69619;Laerm;57653;51.434;5.984;2023-06-14T00:37:58;31.82;28.69;34.95;;
69619;Laerm;57653;51.434;5.984;2023-06-14T00:38:09;31.31;28.29;36.97;;
69619;Laerm;57653;51.434;5.984;2023-06-14T00:38:20;31.77;28.24;35.41;;
69619;Laerm;57653;51.434;5.984;2023-06-14T00:38:30;30.45;27.31;36.33;;
69619;Laerm;57653;51.434;5.984;2023-06-14T00:38:41;30.92;27.33;35.32;;
69619;Laerm;57653;51.434;5.984;2023-06-14T00:38:51;30.95;28.72;35.06;;
69619;Laerm;57653;51.434;5.984;2023-06-14T00:39:01;31.33;28.61;35.73;;
69619;Laerm;57653;51.434;5.984;2023-06-14T00:39:13;31.14;27.88;35.37;;
69619;Laerm;57653;51.434;5.984;2023-06-14T00:39:24;29.78;27.19;33.33;;
69619;Laerm;57653;51.434;5.984;2023-06-14T00:39:34;30.97;27.99;33.72;;
69619;Laerm;57653;51.434;5.984;2023-06-14T00:39:45;31.23;28.13;35.31;;
69619;Laerm;57653;51.434;5.984;2023-06-14T00:39:55;29.80;27.74;32.75;;
69619;Laerm;57653;51.434;5.984;2023-06-14T00:40:06;30.40;28.16;32.91;;
69619;Laerm;57653;51.434;5.984;2023-06-14T00:40:16;30.56;28.30;33.61;;
69619;Laerm;57653;51.434;5.984;2023-06-14T00:40:26;30.25;28.33;32.99;;
69619;Laerm;57653;51.434;5.984;2023-06-14T00:40:37;29.69;28.03;31.90;;
69619;Laerm;57653;51.434;5.984;2023-06-14T00:40:47;30.07;27.84;33.35;;
69619;Laerm;57653;51.434;5.984;2023-06-14T00:40:57;31.76;27.30;36.54;;
69619;Laerm;57653;51.434;5.984;2023-06-14T00:41:07;30.67;27.10;37.03;;
69619;Laerm;57653;51.434;5.984;2023-06-14T00:41:18;30.17;27.04;37.64;;
69619;Laerm;57653;51.434;5.984;2023-06-14T00:41:28;30.63;27.13;37.19;;
69619;Laerm;57653;51.434;5.984;2023-06-14T00:41:39;30.13;27.22;34.08;;
69619;Laerm;57653;51.434;5.984;2023-06-14T00:41:49;29.40;27.46;33.08;;
69619;Laerm;57653;51.434;5.984;2023-06-14T00:41:59;30.81;28.09;37.31;;
69619;Laerm;57653;51.434;5.984;2023-06-14T00:42:09;31.11;28.60;35.39;;
69619;Laerm;57653;51.434;5.984;2023-06-14T00:42:26;29.77;27.94;31.81;;
69619;Laerm;57653;51.434;5.984;2023-06-14T00:42:37;30.89;27.86;35.84;;
69619;Laerm;57653;51.434;5.984;2023-06-14T00:42:47;31.08;28.34;34.43;;
69619;Laerm;57653;51.434;5.984;2023-06-14T00:42:57;31.27;28.27;34.68;;
69619;Laerm;57653;51.434;5.984;2023-06-14T00:43:08;29.42;27.01;32.81;;
69619;Laerm;57653;51.434;5.984;2023-06-14T00:43:18;28.21;26.97;29.96;;
69619;Laerm;57653;51.434;5.984;2023-06-14T00:43:28;28.68;27.12;32.25;;
69619;Laerm;57653;51.434;5.984;2023-06-14T00:43:38;29.74;27.36;34.70;;
69619;Laerm;57653;51.434;5.984;2023-06-14T00:43:49;29.72;27.27;34.23;;
69619;Laerm;57653;51.434;5.984;2023-06-14T00:43:59;29.32;27.35;31.11;;
69619;Laerm;57653;51.434;5.984;2023-06-14T00:44:09;28.84;27.06;31.53;;
69619;Laerm;57653;51.434;5.984;2023-06-14T00:44:20;29.22;26.97;34.92;;
69619;Laerm;57653;51.434;5.984;2023-06-14T00:44:31;29.62;27.90;32.25;;
69619;Laerm;57653;51.434;5.984;2023-06-14T00:44:42;28.52;27.17;29.92;;
69619;Laerm;57653;51.434;5.984;2023-06-14T00:44:52;28.90;27.34;32.62;;
69619;Laerm;57653;51.434;5.984;2023-06-14T00:45:02;29.84;27.24;33.91;;
69619;Laerm;57653;51.434;5.984;2023-06-14T00:45:13;29.39;27.16;33.33;;
69619;Laerm;57653;51.434;5.984;2023-06-14T00:45:23;28.71;27.07;30.29;;
69619;Laerm;57653;51.434;5.984;2023-06-14T00:45:33;29.45;27.47;32.37;;
69619;Laerm;57653;51.434;5.984;2023-06-14T00:45:45;29.17;27.49;31.87;;
69619;Laerm;57653;51.434;5.984;2023-06-14T00:45:56;29.41;27.23;33.35;;
69619;Laerm;57653;51.434;5.984;2023-06-14T00:46:06;28.97;26.75;33.38;;
69619;Laerm;57653;51.434;5.984;2023-06-14T00:46:17;28.30;26.58;31.09;;
69619;Laerm;57653;51.434;5.984;2023-06-14T00:46:27;29.23;27.08;31.87;;
69619;Laerm;57653;51.434;5.984;2023-06-14T00:46:37;30.15;28.56;33.13;;
69619;Laerm;57653;51.434;5.984;2023-06-14T00:46:47;30.66;27.69;34.25;;
69619;Laerm;57653;51.434;5.984;2023-06-14T00:46:58;31.61;28.19;35.62;;
69619;Laerm;57653;51.434;5.984;2023-06-14T00:47:08;31.00;28.44;34.08;;
69619;Laerm;57653;51.434;5.984;2023-06-14T00:47:18;30.68;27.07;36.07;;
69619;Laerm;57653;51.434;5.984;2023-06-14T00:47:29;30.07;27.22;36.67;;
69619;Laerm;57653;51.434;5.984;2023-06-14T00:47:40;29.92;27.42;33.13;;
69619;Laerm;57653;51.434;5.984;2023-06-14T00:47:51;29.31;26.89;32.96;;
69619;Laerm;57653;51.434;5.984;2023-06-14T00:48:05;29.91;27.18;33.12;;
69619;Laerm;57653;51.434;5.984;2023-06-14T00:48:16;30.21;28.27;32.58;;
69619;Laerm;57653;51.434;5.984;2023-06-14T00:48:27;31.08;28.95;33.95;;
69619;Laerm;57653;51.434;5.984;2023-06-14T00:48:38;31.58;27.72;35.82;;
69619;Laerm;57653;51.434;5.984;2023-06-14T00:48:49;30.05;27.00;35.26;;
69619;Laerm;57653;51.434;5.984;2023-06-14T00:49:00;30.44;27.31;37.58;;
69619;Laerm;57653;51.434;5.984;2023-06-14T00:49:11;31.27;27.80;35.45;;
69619;Laerm;57653;51.434;5.984;2023-06-14T00:49:22;31.92;27.61;37.15;;
69619;Laerm;57653;51.434;5.984;2023-06-14T00:49:32;31.88;28.22;35.06;;
69619;Laerm;57653;51.434;5.984;2023-06-14T00:49:44;31.16;27.42;35.29;;
69619;Laerm;57653;51.434;5.984;2023-06-14T00:49:55;30.10;27.37;34.22;;
69619;Laerm;57653;51.434;5.984;2023-06-14T00:50:06;30.61;27.61;32.83;;
69619;Laerm;57653;51.434;5.984;2023-06-14T00:50:17;29.53;28.04;31.17;;
69619;Laerm;57653;51.434;5.984;2023-06-14T00:50:27;29.78;28.18;31.60;;
69619;Laerm;57653;51.434;5.984;2023-06-14T00:50:38;29.15;27.38;31.09;;
69619;Laerm;57653;51.434;5.984;2023-06-14T00:50:49;30.77;27.95;34.59;;
69619;Laerm;57653;51.434;5.984;2023-06-14T00:51:00;30.50;27.51;33.87;;
69619;Laerm;57653;51.434;5.984;2023-06-14T00:51:13;31.75;28.15;36.14;;
69619;Laerm;57653;51.434;5.984;2023-06-14T00:51:24;34.00;30.26;38.60;;
69619;Laerm;57653;51.434;5.984;2023-06-14T00:51:34;53.21;37.53;61.36;;
69619;Laerm;57653;51.434;5.984;2023-06-14T00:51:44;60.52;58.68;62.89;;
69619;Laerm;57653;51.434;5.984;2023-06-14T00:51:55;63.24;60.01;67.50;;
69619;Laerm;57653;51.434;5.984;2023-06-14T00:52:05;58.20;48.14;63.31;;
69619;Laerm;57653;51.434;5.984;2023-06-14T00:52:16;43.75;38.92;50.40;;
69619;Laerm;57653;51.434;5.984;2023-06-14T00:52:27;37.69;34.73;41.89;;
69619;Laerm;57653;51.434;5.984;2023-06-14T00:52:37;35.97;33.98;38.03;;
69619;Laerm;57653;51.434;5.984;2023-06-14T00:52:48;35.03;31.88;37.37;;
69619;Laerm;57653;51.434;5.984;2023-06-14T00:52:59;33.82;29.87;37.47;;
69619;Laerm;57653;51.434;5.984;2023-06-14T00:53:09;33.10;29.49;35.75;;
69619;Laerm;57653;51.434;5.984;2023-06-14T00:53:20;33.10;30.12;35.79;;
69619;Laerm;57653;51.434;5.984;2023-06-14T00:53:32;32.86;29.18;36.43;;
69619;Laerm;57653;51.434;5.984;2023-06-14T00:53:45;32.66;28.20;37.31;;
69619;Laerm;57653;51.434;5.984;2023-06-14T00:53:58;31.72;28.77;36.38;;
69619;Laerm;57653;51.434;5.984;2023-06-14T00:54:09;30.91;28.46;34.46;;
69619;Laerm;57653;51.434;5.984;2023-06-14T00:54:20;31.91;28.69;36.03;;
69619;Laerm;57653;51.434;5.984;2023-06-14T00:54:30;32.73;29.35;36.46;;
69619;Laerm;57653;51.434;5.984;2023-06-14T00:54:41;31.67;28.86;34.70;;
69619;Laerm;57653;51.434;5.984;2023-06-14T00:54:52;33.40;31.14;36.52;;
69619;Laerm;57653;51.434;5.984;2023-06-14T00:55:02;33.35;30.58;35.69;;
69619;Laerm;57653;51.434;5.984;2023-06-14T00:55:13;31.82;28.17;35.95;;
69619;Laerm;57653;51.434;5.984;2023-06-14T00:55:23;31.14;28.19;36.06;;
69619;Laerm;57653;51.434;5.984;2023-06-14T00:55:34;30.98;28.76;33.84;;
69619;Laerm;57653;51.434;5.984;2023-06-14T00:55:44;31.55;28.68;35.48;;
69619;Laerm;57653;51.434;5.984;2023-06-14T00:55:54;32.95;29.23;39.09;;
69619;Laerm;57653;51.434;5.984;2023-06-14T00:56:05;32.18;28.92;35.60;;
69619;Laerm;57653;51.434;5.984;2023-06-14T00:56:15;33.29;28.49;37.46;;
69619;Laerm;57653;51.434;5.984;2023-06-14T00:56:26;32.23;28.54;36.40;;
69619;Laerm;57653;51.434;5.984;2023-06-14T00:56:37;31.80;27.60;35.93;;
69619;Laerm;57653;51.434;5.984;2023-06-14T00:56:48;31.66;27.61;35.21;;
69619;Laerm;57653;51.434;5.984;2023-06-14T00:56:58;30.30;27.45;33.37;;
69619;Laerm;57653;51.434;5.984;2023-06-14T00:57:09;30.31;27.50;35.26;;
69619;Laerm;57653;51.434;5.984;2023-06-14T00:57:20;30.43;27.36;33.92;;
69619;Laerm;57653;51.434;5.984;2023-06-14T00:57:31;31.70;28.71;34.40;;
69619;Laerm;57653;51.434;5.984;2023-06-14T00:57:41;34.13;31.85;35.96;;
69619;Laerm;57653;51.434;5.984;2023-06-14T00:57:53;31.61;29.65;33.58;;
69619;Laerm;57653;51.434;5.984;2023-06-14T00:58:04;31.33;28.47;34.14;;
69619;Laerm;57653;51.434;5.984;2023-06-14T00:58:14;30.94;27.84;36.85;;
69619;Laerm;57653;51.434;5.984;2023-06-14T00:58:25;30.17;28.08;32.99;;
69619;Laerm;57653;51.434;5.984;2023-06-14T00:58:36;30.67;27.16;34.36;;
69619;Laerm;57653;51.434;5.984;2023-06-14T00:58:46;29.52;27.69;32.16;;
69619;Laerm;57653;51.434;5.984;2023-06-14T00:58:57;30.02;27.11;34.21;;
69619;Laerm;57653;51.434;5.984;2023-06-14T00:59:07;29.68;27.03;32.45;;
69619;Laerm;57653;51.434;5.984;2023-06-14T00:59:18;29.73;27.35;32.84;;
69619;Laerm;57653;51.434;5.984;2023-06-14T00:59:28;29.44;27.35;33.82;;
69619;Laerm;57653;51.434;5.984;2023-06-14T00:59:42;28.39;26.84;31.44;;
69619;Laerm;57653;51.434;5.984;2023-06-14T00:59:53;29.34;26.85;35.51;;
69619;Laerm;57653;51.434;5.984;2023-06-14T01:00:04;29.24;27.23;31.85;;